Naicam, Canada
Current Conditions -  °F | °C
As of 8:00 PM on Saturday 25 Oct 2014 (Local Time) from CYBU Reporting Station
Clear Clear  
Wind Chill: 20°   Ceiling: Unl
Heat Index: 27°   Visibility: 9mi
Dew Point: 25°   Wind: 6mph
Humidity: 93%   Direction: 50°NE
Pressure: 29.94"   Gusts: NA
Location:  52.42°N, 104.5°W
Report Text: CYBU 260200Z AUTO 05005KT 9SM CLR M03/M04 A2994 RMK SLP161
Loading
Personal Weather Stations






























Interactive Weather Map
Tropical Storm Tracking
New forecast layout! Learn more

10-Day Weather Forecast

Advertisements
Track Severe Weather on mobile